地図

経路データ

SID SEASON NUMBER BASIN SUBBASIN NAME ISO_TIME NATURE LAT LON WMO_WIND WMO_PRES WMO_AGENCY TRACK_TYPE DIST2LAND LANDFALL IFLAG USA_AGENCY USA_ATCF_ID USA_LAT USA_LON USA_RECORD USA_STATUS USA_WIND USA_PRES USA_SSHS USA_R34_NE USA_R34_SE USA_R34_SW USA_R34_NW USA_R50_NE USA_R50_SE USA_R50_SW USA_R50_NW USA_R64_NE USA_R64_SE USA_R64_SW USA_R64_NW USA_POCI USA_ROCI USA_RMW USA_EYE TOKYO_LAT TOKYO_LON TOKYO_GRADE TOKYO_WIND TOKYO_PRES TOKYO_R50_DIR TOKYO_R50_LONG TOKYO_R50_SHORT TOKYO_R30_DIR TOKYO_R30_LONG TOKYO_R30_SHORT TOKYO_LAND CMA_LAT CMA_LON CMA_CAT CMA_WIND CMA_PRES HKO_LAT HKO_LON HKO_CAT HKO_WIND HKO_PRES NEWDELHI_LAT NEWDELHI_LON NEWDELHI_GRADE NEWDELHI_WIND NEWDELHI_PRES NEWDELHI_CI NEWDELHI_DP NEWDELHI_POCI REUNION_LAT REUNION_LON REUNION_TYPE REUNION_WIND REUNION_PRES REUNION_TNUM REUNION_CI REUNION_RMW REUNION_R34_NE REUNION_R34_SE REUNION_R34_SW REUNION_R34_NW REUNION_R50_NE REUNION_R50_SE REUNION_R50_SW REUNION_R50_NW REUNION_R64_NE REUNION_R64_SE REUNION_R64_SW REUNION_R64_NW BOM_LAT BOM_LON BOM_TYPE BOM_WIND BOM_PRES BOM_TNUM BOM_CI BOM_RMW BOM_R34_NE BOM_R34_SE BOM_R34_SW BOM_R34_NW BOM_R50_NE BOM_R50_SE BOM_R50_SW BOM_R50_NW BOM_R64_NE BOM_R64_SE BOM_R64_SW BOM_R64_NW BOM_ROCI BOM_POCI BOM_EYE BOM_POS_METHOD BOM_PRES_METHOD NADI_LAT NADI_LON NADI_CAT NADI_WIND NADI_PRES WELLINGTON_LAT WELLINGTON_LON WELLINGTON_WIND WELLINGTON_PRES DS824_LAT DS824_LON DS824_STAGE DS824_WIND DS824_PRES TD9636_LAT TD9636_LON TD9636_STAGE TD9636_WIND TD9636_PRES TD9635_LAT TD9635_LON TD9635_WIND TD9635_PRES TD9635_ROCI NEUMANN_LAT NEUMANN_LON NEUMANN_CLASS NEUMANN_WIND NEUMANN_PRES MLC_LAT MLC_LON MLC_CLASS MLC_WIND MLC_PRES USA_GUST BOM_GUST BOM_GUST_PER REUNION_GUST REUNION_GUST_PER USA_SEAHGT USA_SEARAD_NE USA_SEARAD_SE USA_SEARAD_SW USA_SEARAD_NW STORM_SPEED STORM_DIR
2010027S17058 2010 7 SI MM NOT_NAMED 2010-01-26 18:00:00 NR -16.8000 58.4000 main 376 351 O_____________ jtwc_sh SH112010 -16.8000 58.4000 DB 20 1007 -3 11 130
2010027S17058 2010 7 SI MM NOT_NAMED 2010-01-26 21:00:00 NR -17.1427 58.8197 main 355 330 P_____________ SH112010 -17.1427 58.8197 DB 22 1005 -3 10 132
2010027S17058 2010 7 SI MM NOT_NAMED 2010-01-27 00:00:00 NR -17.5000 59.2000 main 330 310 O_____________ jtwc_sh SH112010 -17.5000 59.2000 DB 25 1004 -3 10 139
2010027S17058 2010 7 SI MM NOT_NAMED 2010-01-27 03:00:00 NR -17.8849 59.5025 main 310 290 P_____________ SH112010 -17.8849 59.5025 DB 27 1002 -3 9 149
2010027S17058 2010 7 SI MM NOT_NAMED 2010-01-27 06:00:00 NR -18.3000 59.7000 main 290 270 O_____________ jtwc_sh SH112010 -18.3000 59.7000 DB 30 1000 -3 1008 150 45 9 161
2010027S17058 2010 7 SI MM NOT_NAMED 2010-01-27 09:00:00 NR -18.7424 59.8100 main 270 241 P_____________ SH112010 -18.7424 59.8100 DB 30 1000 -3 1008 150 45 9 174
2010027S17058 2010 7 SI MM NOT_NAMED 2010-01-27 12:00:00 NR -19.2000 59.8000 main 241 209 O_____________ jtwc_sh SH112010 -19.2000 59.8000 DB 30 1000 -3 1008 150 45 10 187
2010027S17058 2010 7 SI MM NOT_NAMED 2010-01-27 15:00:00 NR -19.6800 59.6952 main 209 178 P_____________ SH112010 -19.6800 59.6952 DB 32 998 -3 1008 175 45 9 197
2010027S17058 2010 7 SI MM NOT_NAMED 2010-01-27 18:00:00 TS -20.1000 59.5000 main 178 146 O_____________ jtwc_sh SH112010 -20.1000 59.5000 TS 35 996 0 1008 200 45 8 213
2010027S17058 2010 7 SI MM NOT_NAMED 2010-01-27 21:00:00 TS -20.3651 59.2275 main 146 127 P_____________ SH112010 -20.3651 59.2275 TS 35 996 0 1008 200 45 7 223
2010027S17058 2010 7 SI MM NOT_NAMED 2010-01-28 00:00:00 TS -20.6000 59.0000 main 129 122 O_____________ jtwc_sh SH112010 -20.6000 59.0000 TS 35 996 0 1008 200 45 7 206
2010027S17058 2010 7 SI MM NOT_NAMED 2010-01-28 03:00:00 TS -20.9499 58.9250 main 132 132 P_____________ SH112010 -20.9499 58.9250 TS 35 996 0 1007 187 40 7 0
2010027S17058 2010 7 SI MM NOT_NAMED 2010-01-28 06:00:00 TS -21.3000 59.0000 main 161 161 O_____________ jtwc_sh SH112010 -21.3000 59.0000 TS 35 996 0 1006 175 35 7 153
2010027S17058 2010 7 SI MM NOT_NAMED 2010-01-28 09:00:00 TS -21.5277 59.2424 main 191 191 P_____________ SH112010 -21.5277 59.2424 TS 32 998 -1 1005 165 35 7 137
2010027S17058 2010 7 SI MM NOT_NAMED 2010-01-28 12:00:00 TS -21.8000 59.5000 main 236 236 O_____________ jtwc_sh SH112010 -21.8000 59.5000 TD 30 1000 -1 1005 155 35 8 153
2010027S17058 2010 7 SI MM NOT_NAMED 2010-01-28 15:00:00 TS -22.2474 59.6320 main 273 273 P_____________ SH112010 -22.2474 59.6320 TD 32 998 -1 1005 155 35 10 175
2010027S17058 2010 7 SI MM NOT_NAMED 2010-01-28 18:00:00 TS -22.8000 59.6000 main 323 323 O_____________ jtwc_sh SH112010 -22.8000 59.6000 TS 35 996 0 1005 155 35 12 197
2010027S17058 2010 7 SI MM NOT_NAMED 2010-01-28 21:00:00 TS -23.4003 59.2493 main 359 359 P_____________ SH112010 -23.4003 59.2493 TS 35 996 0 1005 155 35 13 205
2010027S17058 2010 7 SI MM NOT_NAMED 2010-01-29 00:00:00 TS -24.0000 59.0000 main 413 413 O_____________ jtwc_sh SH112010 -24.0000 59.0000 TS 35 996 0 1005 155 35 11 175
2010027S17058 2010 7 SI MM NOT_NAMED 2010-01-29 03:00:00 TS -24.4781 59.3535 main 480 480 P_____________ SH112010 -24.4781 59.3535 TS 32 998 -1 1005 155 35 12 144
2010027S17058 2010 7 SI MM NOT_NAMED 2010-01-29 06:00:00 TS -25.0000 59.8000 main 547 547 O_____________ jtwc_sh SH112010 -25.0000 59.8000 TD 30 1000 -1 1005 155 35 14 162
2010027S17058 2010 7 SI MM NOT_NAMED 2010-01-29 09:00:00 TS -25.7572 59.8091 main 630 630 P_____________ SH112010 -25.7572 59.8091 TD 30 1000 -1 1005 160 40 15 0
2010027S17058 2010 7 SI MM NOT_NAMED 2010-01-29 12:00:00 TS -26.5000 59.8000 main 703 703 O_____________ jtwc_sh SH112010 -26.5000 59.8000 TD 30 1000 -1 1005 165 45 13 168
2010027S17058 2010 7 SI MM NOT_NAMED 2010-01-29 15:00:00 TS -26.9877 60.1122 main 766 766 P_____________ SH112010 -26.9877 60.1122 TD 30 1000 -1 1005 165 45 11 145
2010027S17058 2010 7 SI MM NOT_NAMED 2010-01-29 18:00:00 TS -27.4000 60.5000 main 821 821 O_____________ jtwc_sh SH112010 -27.4000 60.5000 TD 30 1000 -1 1005 165 45 11 149
2010027S17058 2010 7 SI MM NOT_NAMED 2010-01-29 21:00:00 TS -27.9072 60.7356 main 880 880 P_____________ SH112010 -27.9072 60.7356 TD 30 1000 -1 1005 165 45 11 156
2010027S17058 2010 7 SI MM NOT_NAMED 2010-01-30 00:00:00 TS -28.4000 61.0000 main 943 943 O_____________ jtwc_sh SH112010 -28.4000 61.0000 TD 30 1000 -1 1005 165 45 11 146
2010027S17058 2010 7 SI MM NOT_NAMED 2010-01-30 03:00:00 TS -28.8002 61.4277 main 999 999 P_____________ SH112010 -28.8002 61.4277 TD 30 1000 -1 1004 175 47 11 135
2010027S17058 2010 7 SI MM NOT_NAMED 2010-01-30 06:00:00 TS -29.2000 61.9000 main 1060 1060 O_____________ jtwc_sh SH112010 -29.2000 61.9000 TD 30 1000 -1 1004 185 50 12 140
2010027S17058 2010 7 SI MM NOT_NAMED 2010-01-30 09:00:00 TS -29.6996 62.2854 main 1126 1126 P_____________ SH112010 -29.6996 62.2854 TD 27 1002 -1 12 145
2010027S17058 2010 7 SI MM NOT_NAMED 2010-01-30 12:00:00 TS -30.2000 62.7000 main 1193 1193 O_____________ jtwc_sh SH112010 -30.2000 62.7000 TD 25 1004 -1 12 139
2010027S17058 2010 7 SI MM NOT_NAMED 2010-01-30 15:00:00 TS -30.5997 63.2060 main 1255 1255 P_____________ SH112010 -30.5997 63.2060 TD 22 1005 -1 12 130
2010027S17058 2010 7 SI MM NOT_NAMED 2010-01-30 18:00:00 ET -31.0000 63.8000 main 1321 1321 O_____________ jtwc_sh SH112010 -31.0000 63.8000 EX 20 1007 -4 14 128
2010027S17058 2010 7 SI MM NOT_NAMED 2010-01-30 21:00:00 ET -31.4702 64.4927 main 1402 1402 P_____________ SH112010 -31.4702 64.4927 EX 20 1007 -4 16 130
2010027S17058 2010 7 SI MM NOT_NAMED 2010-01-31 00:00:00 ET -32.0000 65.2000 main 1484 1484 O_____________ jtwc_sh SH112010 -32.0000 65.2000 EX 20 1007 -4 16 135
2010027S17058 2010 7 SI MM NOT_NAMED 2010-01-31 03:00:00 ET -32.5852 65.8262 main 1571 1571 P_____________ SH112010 -32.5852 65.8262 EX 20 1007 -4 16 140
2010027S17058 2010 7 SI MM NOT_NAMED 2010-01-31 06:00:00 ET -33.2000 66.4000 main 1658 O_____________ jtwc_sh SH112010 -33.2000 66.4000 EX 20 1007 -4 16 142

IBTrACS Databaseについて

本データベースは、米国NOAAが公開する1842年以降の世界の熱帯低気圧のベストトラックデータアーカイブInternational Best Track Archive for Climate Stewardship (IBTrACS)を、ウェブで閲覧しやすい形式に変換したものです。

最終更新日:2021-10-21